sensor_id;sensor_type;location;lat;lon;timestamp;pressure;altitude;pressure_sealevel;temperature;humidity
66887;BME280;53798;51.680;5.976;2022-10-15T00:01:24;100669.47;;;11.49;98.80
66887;BME280;53798;51.680;5.976;2022-10-15T00:03:52;100661.72;;;11.44;98.94
66887;BME280;53798;51.680;5.976;2022-10-15T00:06:20;100657.47;;;11.40;98.79
66887;BME280;53798;51.680;5.976;2022-10-15T00:08:47;100665.56;;;11.36;98.81
66887;BME280;53798;51.680;5.976;2022-10-15T00:11:17;100670.91;;;11.34;98.86
66887;BME280;53798;51.680;5.976;2022-10-15T00:13:47;100669.28;;;11.30;98.96
66887;BME280;53798;51.680;5.976;2022-10-15T00:16:18;100661.44;;;11.28;98.86
66887;BME280;53798;51.680;5.976;2022-10-15T00:18:47;100662.38;;;11.26;99.00
66887;BME280;53798;51.680;5.976;2022-10-15T00:21:18;100658.97;;;11.24;99.10
66887;BME280;53798;51.680;5.976;2022-10-15T00:23:47;100663.44;;;11.20;98.96
66887;BME280;53798;51.680;5.976;2022-10-15T00:26:19;100658.31;;;11.17;98.74
66887;BME280;53798;51.680;5.976;2022-10-15T00:28:49;100668.28;;;11.09;98.81
66887;BME280;53798;51.680;5.976;2022-10-15T00:31:22;100672.78;;;11.05;98.95
66887;BME280;53798;51.680;5.976;2022-10-15T00:33:55;100667.66;;;11.00;98.71
66887;BME280;53798;51.680;5.976;2022-10-15T00:36:28;100659.91;;;10.96;98.84
66887;BME280;53798;51.680;5.976;2022-10-15T00:38:57;100662.78;;;10.90;98.83
66887;BME280;53798;51.680;5.976;2022-10-15T00:41:27;100668.19;;;10.85;98.62
66887;BME280;53798;51.680;5.976;2022-10-15T00:44:45;100666.63;;;10.79;98.70
66887;BME280;53798;51.680;5.976;2022-10-15T00:50:08;100662.50;;;10.72;98.77
66887;BME280;53798;51.680;5.976;2022-10-15T00:52:59;100664.34;;;10.68;98.88
66887;BME280;53798;51.680;5.976;2022-10-15T00:55:38;100672.41;;;10.64;98.72
66887;BME280;53798;51.680;5.976;2022-10-15T00:58:14;100669.91;;;10.61;98.93
66887;BME280;53798;51.680;5.976;2022-10-15T01:00:44;100671.78;;;10.57;98.84
66887;BME280;53798;51.680;5.976;2022-10-15T01:03:11;100675.41;;;10.53;98.72
66887;BME280;53798;51.680;5.976;2022-10-15T01:05:39;100668.50;;;10.49;98.67
66887;BME280;53798;51.680;5.976;2022-10-15T01:08:11;100673.00;;;10.47;98.84
66887;BME280;53798;51.680;5.976;2022-10-15T01:10:47;100675.72;;;10.44;98.68
66887;BME280;53798;51.680;5.976;2022-10-15T01:13:48;100674.97;;;10.38;98.89
66887;BME280;53798;51.680;5.976;2022-10-15T01:16:45;100672.38;;;10.37;98.94
66887;BME280;53798;51.680;5.976;2022-10-15T01:19:27;100676.81;;;10.35;98.78
66887;BME280;53798;51.680;5.976;2022-10-15T01:22:33;100673.28;;;10.37;98.83
66887;BME280;53798;51.680;5.976;2022-10-15T01:31:08;100663.72;;;10.33;99.18
66887;BME280;53798;51.680;5.976;2022-10-15T01:33:53;100656.66;;;10.34;99.06
66887;BME280;53798;51.680;5.976;2022-10-15T01:37:08;100653.94;;;10.37;99.63
66887;BME280;53798;51.680;5.976;2022-10-15T01:40:16;100645.00;;;10.43;99.78
66887;BME280;53798;51.680;5.976;2022-10-15T01:42:55;100638.72;;;10.47;99.77
66887;BME280;53798;51.680;5.976;2022-10-15T01:45:42;100640.31;;;10.52;99.84
66887;BME280;53798;51.680;5.976;2022-10-15T01:48:36;100633.16;;;10.56;99.94
66887;BME280;53798;51.680;5.976;2022-10-15T01:51:05;100629.44;;;10.62;100.00
66887;BME280;53798;51.680;5.976;2022-10-15T01:53:37;100633.66;;;10.67;100.00
66887;BME280;53798;51.680;5.976;2022-10-15T01:56:13;100629.94;;;10.73;100.00
66887;BME280;53798;51.680;5.976;2022-10-15T01:58:46;100635.84;;;10.80;100.00
66887;BME280;53798;51.680;5.976;2022-10-15T02:01:16;100629.41;;;10.88;100.00
66887;BME280;53798;51.680;5.976;2022-10-15T02:03:48;100631.81;;;10.95;100.00
66887;BME280;53798;51.680;5.976;2022-10-15T02:09:00;100622.47;;;11.10;100.00
66887;BME280;53798;51.680;5.976;2022-10-15T02:12:11;100612.53;;;11.18;100.00
66887;BME280;53798;51.680;5.976;2022-10-15T02:15:02;100620.28;;;11.23;100.00
66887;BME280;53798;51.680;5.976;2022-10-15T02:17:45;100621.78;;;11.30;100.00
66887;BME280;53798;51.680;5.976;2022-10-15T02:20:22;100624.25;;;11.34;100.00
66887;BME280;53798;51.680;5.976;2022-10-15T02:22:59;100624.91;;;11.40;100.00
66887;BME280;53798;51.680;5.976;2022-10-15T02:25:32;100623.06;;;11.43;100.00
66887;BME280;53798;51.680;5.976;2022-10-15T02:28:04;100624.66;;;11.47;100.00
66887;BME280;53798;51.680;5.976;2022-10-15T02:30:36;100617.47;;;11.51;100.00
66887;BME280;53798;51.680;5.976;2022-10-15T02:33:11;100615.59;;;11.55;100.00
66887;BME280;53798;51.680;5.976;2022-10-15T02:35:41;100608.44;;;11.57;100.00
66887;BME280;53798;51.680;5.976;2022-10-15T02:38:12;100599.69;;;11.56;100.00
66887;BME280;53798;51.680;5.976;2022-10-15T02:40:45;100604.84;;;11.59;100.00
66887;BME280;53798;51.680;5.976;2022-10-15T02:43:15;100599.50;;;11.61;100.00
66887;BME280;53798;51.680;5.976;2022-10-15T02:45:47;100597.69;;;11.63;100.00
66887;BME280;53798;51.680;5.976;2022-10-15T02:48:16;100600.31;;;11.63;100.00
66887;BME280;53798;51.680;5.976;2022-10-15T02:50:45;100594.13;;;11.64;100.00
66887;BME280;53798;51.680;5.976;2022-10-15T02:53:13;100589.69;;;11.64;100.00
66887;BME280;53798;51.680;5.976;2022-10-15T02:55:42;100594.13;;;11.64;100.00
66887;BME280;53798;51.680;5.976;2022-10-15T02:58:09;100582.56;;;11.67;100.00
66887;BME280;53798;51.680;5.976;2022-10-15T03:00:39;100586.94;;;11.68;100.00
66887;BME280;53798;51.680;5.976;2022-10-15T03:03:07;100591.28;;;11.69;100.00
66887;BME280;53798;51.680;5.976;2022-10-15T03:05:34;100585.94;;;11.70;100.00
66887;BME280;53798;51.680;5.976;2022-10-15T03:08:01;100579.75;;;11.71;100.00
66887;BME280;53798;51.680;5.976;2022-10-15T03:10:30;100576.19;;;11.72;100.00
66887;BME280;53798;51.680;5.976;2022-10-15T03:13:03;100570.84;;;11.74;100.00
66887;BME280;53798;51.680;5.976;2022-10-15T03:15:35;100570.75;;;11.75;100.00
66887;BME280;53798;51.680;5.976;2022-10-15T03:18:03;100562.84;;;11.75;100.00
66887;BME280;53798;51.680;5.976;2022-10-15T03:20:31;100561.94;;;11.76;100.00
66887;BME280;53798;51.680;5.976;2022-10-15T03:23:01;100557.53;;;11.77;100.00
66887;BME280;53798;51.680;5.976;2022-10-15T03:25:30;100564.56;;;11.76;100.00
66887;BME280;53798;51.680;5.976;2022-10-15T03:28:01;100560.19;;;11.75;100.00
66887;BME280;53798;51.680;5.976;2022-10-15T03:30:35;100557.63;;;11.74;100.00
66887;BME280;53798;51.680;5.976;2022-10-15T03:33:03;100562.09;;;11.72;100.00
66887;BME280;53798;51.680;5.976;2022-10-15T03:35:31;100561.38;;;11.68;99.87
66887;BME280;53798;51.680;5.976;2022-10-15T03:37:58;100565.84;;;11.66;99.81
66887;BME280;53798;51.680;5.976;2022-10-15T03:40:26;100565.91;;;11.64;99.77
66887;BME280;53798;51.680;5.976;2022-10-15T03:42:56;100564.25;;;11.62;99.63
66887;BME280;53798;51.680;5.976;2022-10-15T03:45:24;100561.75;;;11.59;99.70
66887;BME280;53798;51.680;5.976;2022-10-15T03:48:12;100568.81;;;11.58;99.93
66887;BME280;53798;51.680;5.976;2022-10-15T03:50:39;100567.81;;;11.61;100.00
66887;BME280;53798;51.680;5.976;2022-10-15T03:53:07;100564.25;;;11.62;100.00
66887;BME280;53798;51.680;5.976;2022-10-15T03:55:35;100567.72;;;11.64;100.00
66887;BME280;53798;51.680;5.976;2022-10-15T03:58:02;100564.13;;;11.65;100.00
66887;BME280;53798;51.680;5.976;2022-10-15T04:00:30;100561.44;;;11.67;100.00
66887;BME280;53798;51.680;5.976;2022-10-15T04:03:01;100556.97;;;11.69;100.00
66887;BME280;53798;51.680;5.976;2022-10-15T04:05:28;100547.25;;;11.69;100.00
66887;BME280;53798;51.680;5.976;2022-10-15T04:08:02;100554.25;;;11.70;100.00
66887;BME280;53798;51.680;5.976;2022-10-15T04:10:33;100554.25;;;11.70;100.00
66887;BME280;53798;51.680;5.976;2022-10-15T04:13:00;100548.00;;;11.73;100.00
66887;BME280;53798;51.680;5.976;2022-10-15T04:15:27;100553.22;;;11.74;100.00
66887;BME280;53798;51.680;5.976;2022-10-15T04:17:59;100553.16;;;11.76;100.00
66887;BME280;53798;51.680;5.976;2022-10-15T04:20:27;100546.97;;;11.77;100.00
66887;BME280;53798;51.680;5.976;2022-10-15T04:23:07;100554.06;;;11.75;100.00
66887;BME280;53798;51.680;5.976;2022-10-15T04:25:38;100554.06;;;11.75;100.00
66887;BME280;53798;51.680;5.976;2022-10-15T04:28:07;100562.00;;;11.75;100.00
66887;BME280;53798;51.680;5.976;2022-10-15T04:30:36;100564.63;;;11.75;100.00
66887;BME280;53798;51.680;5.976;2022-10-15T04:33:07;100564.56;;;11.76;100.00
66887;BME280;53798;51.680;5.976;2022-10-15T04:35:35;100561.81;;;11.79;100.00
66887;BME280;53798;51.680;5.976;2022-10-15T04:38:08;100566.91;;;11.84;100.00
66887;BME280;53798;51.680;5.976;2022-10-15T04:41:13;100568.44;;;11.90;100.00
66887;BME280;53798;51.680;5.976;2022-10-15T04:43:57;100572.75;;;11.92;100.00
66887;BME280;53798;51.680;5.976;2022-10-15T04:46:28;100566.50;;;11.95;100.00
66887;BME280;53798;51.680;5.976;2022-10-15T04:48:57;100568.19;;;11.98;100.00
66887;BME280;53798;51.680;5.976;2022-10-15T04:51:25;100561.06;;;12.00;100.00
66887;BME280;53798;51.680;5.976;2022-10-15T04:54:02;100563.63;;;12.01;100.00
66887;BME280;53798;51.680;5.976;2022-10-15T04:56:31;100563.56;;;12.03;100.00
66887;BME280;53798;51.680;5.976;2022-10-15T04:58:58;100563.44;;;12.06;100.00
66887;BME280;53798;51.680;5.976;2022-10-15T05:01:28;100559.81;;;12.08;100.00
66887;BME280;53798;51.680;5.976;2022-10-15T05:04:14;100565.03;;;12.10;100.00
66887;BME280;53798;51.680;5.976;2022-10-15T05:06:42;100559.69;;;12.11;100.00
66887;BME280;53798;51.680;5.976;2022-10-15T05:09:16;100542.84;;;12.14;100.00
66887;BME280;53798;51.680;5.976;2022-10-15T05:11:48;100549.00;;;12.15;100.00
66887;BME280;53798;51.680;5.976;2022-10-15T05:14:15;100542.78;;;12.16;100.00
66887;BME280;53798;51.680;5.976;2022-10-15T05:16:51;100550.72;;;12.16;100.00
66887;BME280;53798;51.680;5.976;2022-10-15T05:19:18;100555.06;;;12.17;100.00
66887;BME280;53798;51.680;5.976;2022-10-15T05:21:47;100554.09;;;12.19;100.00
66887;BME280;53798;51.680;5.976;2022-10-15T05:24:23;100565.38;;;12.23;100.00
66887;BME280;53798;51.680;5.976;2022-10-15T05:26:59;100568.75;;;12.26;100.00
66887;BME280;53798;51.680;5.976;2022-10-15T05:29:31;100565.91;;;12.31;100.00
66887;BME280;53798;51.680;5.976;2022-10-15T05:31:59;100556.06;;;12.35;100.00
66887;BME280;53798;51.680;5.976;2022-10-15T05:34:27;100561.16;;;12.39;100.00
66887;BME280;53798;51.680;5.976;2022-10-15T05:37:03;100561.03;;;12.42;100.00
66887;BME280;53798;51.680;5.976;2022-10-15T05:39:31;100565.25;;;12.47;100.00
66887;BME280;53798;51.680;5.976;2022-10-15T05:41:58;100558.94;;;12.51;100.00
66887;BME280;53798;51.680;5.976;2022-10-15T05:44:35;100566.78;;;12.52;100.00
66887;BME280;53798;51.680;5.976;2022-10-15T05:47:02;100574.50;;;12.57;100.00
66887;BME280;53798;51.680;5.976;2022-10-15T05:49:29;100577.13;;;12.58;100.00
66887;BME280;53798;51.680;5.976;2022-10-15T05:52:09;100572.63;;;12.61;100.00
66887;BME280;53798;51.680;5.976;2022-10-15T05:54:59;100580.56;;;12.61;100.00
66887;BME280;53798;51.680;5.976;2022-10-15T05:57:26;100578.69;;;12.63;100.00
66887;BME280;53798;51.680;5.976;2022-10-15T05:59:53;100578.63;;;12.64;100.00
66887;BME280;53798;51.680;5.976;2022-10-15T06:02:21;100572.34;;;12.67;100.00
66887;BME280;53798;51.680;5.976;2022-10-15T06:04:49;100582.00;;;12.68;100.00
66887;BME280;53798;51.680;5.976;2022-10-15T06:07:19;100576.63;;;12.69;100.00
66887;BME280;53798;51.680;5.976;2022-10-15T06:09:46;100574.88;;;12.70;100.00
66887;BME280;53798;51.680;5.976;2022-10-15T06:12:16;100571.31;;;12.71;100.00
66887;BME280;53798;51.680;5.976;2022-10-15T06:14:43;100583.53;;;12.73;100.00
66887;BME280;53798;51.680;5.976;2022-10-15T06:17:10;100586.91;;;12.77;100.00
66887;BME280;53798;51.680;5.976;2022-10-15T06:19:41;100578.13;;;12.77;100.00
66887;BME280;53798;51.680;5.976;2022-10-15T06:22:08;100580.59;;;12.80;100.00
66887;BME280;53798;51.680;5.976;2022-10-15T06:24:36;100577.03;;;12.81;100.00
66887;BME280;53798;51.680;5.976;2022-10-15T06:27:06;100574.19;;;12.85;100.00
66887;BME280;53798;51.680;5.976;2022-10-15T06:29:36;100565.13;;;12.91;100.00
66887;BME280;53798;51.680;5.976;2022-10-15T06:32:03;100564.84;;;12.97;100.00
66887;BME280;53798;51.680;5.976;2022-10-15T06:34:31;100569.94;;;13.02;100.00
66887;BME280;53798;51.680;5.976;2022-10-15T06:36:58;100572.38;;;13.07;100.00
66887;BME280;53798;51.680;5.976;2022-10-15T06:39:28;100580.16;;;13.10;100.00
66887;BME280;53798;51.680;5.976;2022-10-15T06:41:56;100583.53;;;13.13;100.00
66887;BME280;53798;51.680;5.976;2022-10-15T06:44:33;100589.56;;;13.17;100.00
66887;BME280;53798;51.680;5.976;2022-10-15T06:47:03;100592.84;;;13.22;100.00
66887;BME280;53798;51.680;5.976;2022-10-15T06:49:30;100590.13;;;13.24;100.00
66887;BME280;53798;51.680;5.976;2022-10-15T06:51:58;100591.78;;;13.26;100.00
66887;BME280;53798;51.680;5.976;2022-10-15T06:54:29;100584.63;;;13.28;100.00
66887;BME280;53798;51.680;5.976;2022-10-15T06:56:57;100583.66;;;13.31;100.00
66887;BME280;53798;51.680;5.976;2022-10-15T06:59:24;100581.56;;;13.38;100.00
66887;BME280;53798;51.680;5.976;2022-10-15T07:01:52;100580.38;;;13.45;100.00
66887;BME280;53798;51.680;5.976;2022-10-15T07:04:21;100573.06;;;13.50;99.92
66887;BME280;53798;51.680;5.976;2022-10-15T07:06:49;100574.56;;;13.56;99.86
66887;BME280;53798;51.680;5.976;2022-10-15T07:09:18;100581.50;;;13.58;99.34
66887;BME280;53798;51.680;5.976;2022-10-15T07:11:49;100574.31;;;13.62;99.03
66887;BME280;53798;51.680;5.976;2022-10-15T07:14:16;100572.28;;;13.67;99.04
66887;BME280;53798;51.680;5.976;2022-10-15T07:16:43;100575.59;;;13.72;98.91
66887;BME280;53798;51.680;5.976;2022-10-15T07:19:10;100579.66;;;13.79;98.71
66887;BME280;53798;51.680;5.976;2022-10-15T07:21:38;100579.34;;;13.86;98.51
66887;BME280;53798;51.680;5.976;2022-10-15T07:24:05;100579.69;;;13.97;98.30
66887;BME280;53798;51.680;5.976;2022-10-15T07:26:32;100580.94;;;14.07;97.87
66887;BME280;53798;51.680;5.976;2022-10-15T07:29:02;100585.75;;;14.18;97.18
66887;BME280;53798;51.680;5.976;2022-10-15T07:31:31;100587.00;;;14.28;96.51
66887;BME280;53798;51.680;5.976;2022-10-15T07:33:58;100578.03;;;14.31;96.66
66887;BME280;53798;51.680;5.976;2022-10-15T07:36:26;100581.63;;;14.30;96.29
66887;BME280;53798;51.680;5.976;2022-10-15T07:38:53;100574.72;;;14.26;95.92
66887;BME280;53798;51.680;5.976;2022-10-15T07:41:21;100578.63;;;14.19;95.58
66887;BME280;53798;51.680;5.976;2022-10-15T07:43:51;100572.63;;;14.15;95.59
66887;BME280;53798;51.680;5.976;2022-10-15T07:46:19;100577.16;;;14.13;95.52
66887;BME280;53798;51.680;5.976;2022-10-15T07:48:52;100563.88;;;14.13;95.72
66887;BME280;53798;51.680;5.976;2022-10-15T07:51:19;100559.47;;;14.13;95.62
66887;BME280;53798;51.680;5.976;2022-10-15T07:53:46;100563.03;;;14.12;95.57
66887;BME280;53798;51.680;5.976;2022-10-15T07:56:14;100572.41;;;14.20;95.58
66887;BME280;53798;51.680;5.976;2022-10-15T07:58:42;100570.06;;;14.31;95.52
66887;BME280;53798;51.680;5.976;2022-10-15T08:01:19;100564.31;;;14.40;95.60
66887;BME280;53798;51.680;5.976;2022-10-15T08:03:46;100564.84;;;14.47;95.43
66887;BME280;53798;51.680;5.976;2022-10-15T08:06:14;100554.69;;;14.55;95.47
66887;BME280;53798;51.680;5.976;2022-10-15T08:08:41;100544.00;;;14.57;95.30
66887;BME280;53798;51.680;5.976;2022-10-15T08:11:11;100545.66;;;14.59;94.83
66887;BME280;53798;51.680;5.976;2022-10-15T08:13:40;100534.66;;;14.50;94.41
66887;BME280;53798;51.680;5.976;2022-10-15T08:16:13;100538.56;;;14.42;94.37
66887;BME280;53798;51.680;5.976;2022-10-15T08:18:48;100552.13;;;14.36;94.18
66887;BME280;53798;51.680;5.976;2022-10-15T08:21:15;100547.00;;;14.33;94.32
66887;BME280;53798;51.680;5.976;2022-10-15T08:23:42;100553.94;;;14.36;94.26
66887;BME280;53798;51.680;5.976;2022-10-15T08:26:09;100550.91;;;14.43;94.60
66887;BME280;53798;51.680;5.976;2022-10-15T08:28:36;100539.97;;;14.50;94.63
66887;BME280;53798;51.680;5.976;2022-10-15T08:31:04;100541.19;;;14.60;94.45
66887;BME280;53798;51.680;5.976;2022-10-15T08:33:34;100540.84;;;14.68;94.59
66887;BME280;53798;51.680;5.976;2022-10-15T08:36:06;100538.97;;;14.70;94.30
66887;BME280;53798;51.680;5.976;2022-10-15T08:38:34;100539.00;;;14.86;94.13
66887;BME280;53798;51.680;5.976;2022-10-15T08:41:03;100540.69;;;15.04;93.98
66887;BME280;53798;51.680;5.976;2022-10-15T08:43:42;100530.69;;;15.26;94.21
66887;BME280;53798;51.680;5.976;2022-10-15T08:46:19;100537.19;;;15.36;93.46
66887;BME280;53798;51.680;5.976;2022-10-15T08:48:55;100525.53;;;15.38;92.73
66887;BME280;53798;51.680;5.976;2022-10-15T08:51:26;100531.13;;;15.34;92.76
66887;BME280;53798;51.680;5.976;2022-10-15T08:54:02;100521.38;;;15.34;91.77
66887;BME280;53798;51.680;5.976;2022-10-15T08:56:34;100525.66;;;15.37;92.35
66887;BME280;53798;51.680;5.976;2022-10-15T09:02:16;100508.84;;;15.52;91.04
66887;BME280;53798;51.680;5.976;2022-10-15T09:05:13;100509.75;;;15.67;90.54
66887;BME280;53798;51.680;5.976;2022-10-15T09:08:04;100506.41;;;15.80;90.50
66887;BME280;53798;51.680;5.976;2022-10-15T09:10:48;100507.44;;;15.93;90.44
66887;BME280;53798;51.680;5.976;2022-10-15T09:13:24;100490.84;;;16.04;89.99
66887;BME280;53798;51.680;5.976;2022-10-15T09:16:00;100485.69;;;16.17;88.36
66887;BME280;53798;51.680;5.976;2022-10-15T09:18:31;100488.16;;;16.20;88.12
66887;BME280;53798;51.680;5.976;2022-10-15T09:21:03;100493.88;;;16.28;89.02
66887;BME280;53798;51.680;5.976;2022-10-15T09:23:34;100496.06;;;16.36;88.63
66887;BME280;53798;51.680;5.976;2022-10-15T09:31:24;100486.75;;;16.43;86.51
66887;BME280;53798;51.680;5.976;2022-10-15T09:34:11;100480.88;;;16.38;86.55
66887;BME280;53798;51.680;5.976;2022-10-15T09:37:01;100484.88;;;16.31;86.41
66887;BME280;53798;51.680;5.976;2022-10-15T09:39:52;100489.69;;;16.24;87.03
66887;BME280;53798;51.680;5.976;2022-10-15T09:42:51;100485.59;;;16.19;87.04
66887;BME280;53798;51.680;5.976;2022-10-15T09:45:21;100484.94;;;16.15;87.18
66887;BME280;53798;51.680;5.976;2022-10-15T09:47:50;100470.09;;;16.11;87.63
66887;BME280;53798;51.680;5.976;2022-10-15T09:50:20;100473.78;;;16.08;87.42
66887;BME280;53798;51.680;5.976;2022-10-15T09:53:04;100468.66;;;16.05;87.26
66887;BME280;53798;51.680;5.976;2022-10-15T09:56:31;100468.47;;;16.08;87.51
66887;BME280;53798;51.680;5.976;2022-10-15T10:01:23;100458.97;;;16.04;87.77
66887;BME280;53798;51.680;5.976;2022-10-15T10:04:02;100459.50;;;15.95;87.90
66887;BME280;53798;51.680;5.976;2022-10-15T10:06:53;100464.41;;;15.87;87.96
66887;BME280;53798;51.680;5.976;2022-10-15T10:12:04;100453.47;;;15.77;88.70
66887;BME280;53798;51.680;5.976;2022-10-15T10:17:23;100449.81;;;15.78;89.52
66887;BME280;53798;51.680;5.976;2022-10-15T10:20:18;100454.19;;;15.79;89.83
66887;BME280;53798;51.680;5.976;2022-10-15T10:22:55;100450.97;;;15.74;90.24
66887;BME280;53798;51.680;5.976;2022-10-15T10:25:33;100458.06;;;15.73;90.60
66887;BME280;53798;51.680;5.976;2022-10-15T10:33:33;100455.53;;;15.56;91.45
66887;BME280;53798;51.680;5.976;2022-10-15T10:36:05;100453.31;;;15.48;91.72
66887;BME280;53798;51.680;5.976;2022-10-15T10:38:35;100457.50;;;15.52;91.98
66887;BME280;53798;51.680;5.976;2022-10-15T10:41:07;100455.69;;;15.52;92.60
66887;BME280;53798;51.680;5.976;2022-10-15T10:43:37;100455.03;;;15.49;92.87
66887;BME280;53798;51.680;5.976;2022-10-15T10:48:46;100451.44;;;15.50;93.01
66887;BME280;53798;51.680;5.976;2022-10-15T10:51:20;100442.53;;;15.51;93.27
66887;BME280;53798;51.680;5.976;2022-10-15T10:54:10;100447.94;;;15.49;93.46
66887;BME280;53798;51.680;5.976;2022-10-15T10:56:44;100439.03;;;15.50;93.60
66887;BME280;53798;51.680;5.976;2022-10-15T10:59:17;100443.81;;;15.60;94.03
66887;BME280;53798;51.680;5.976;2022-10-15T11:01:54;100449.84;;;15.62;94.11
66887;BME280;53798;51.680;5.976;2022-10-15T11:04:32;100447.19;;;15.62;94.04
66887;BME280;53798;51.680;5.976;2022-10-15T11:22:11;100426.38;;;16.01;93.68
66887;BME280;53798;51.680;5.976;2022-10-15T11:24:59;100418.78;;;15.94;93.87
66887;BME280;53798;51.680;5.976;2022-10-15T11:27:57;100416.31;;;15.91;94.17
66887;BME280;53798;51.680;5.976;2022-10-15T11:30:57;100416.47;;;15.88;94.18
66887;BME280;53798;51.680;5.976;2022-10-15T11:36:25;100419.06;;;15.90;94.51
66887;BME280;53798;51.680;5.976;2022-10-15T11:39:11;100420.56;;;15.94;94.84
66887;BME280;53798;51.680;5.976;2022-10-15T11:42:22;100416.53;;;16.03;94.63
66887;BME280;53798;51.680;5.976;2022-10-15T11:56:27;100406.47;;;16.22;94.80
66887;BME280;53798;51.680;5.976;2022-10-15T12:02:00;100392.06;;;16.26;94.67
66887;BME280;53798;51.680;5.976;2022-10-15T12:05:19;100397.09;;;16.31;94.54
66887;BME280;53798;51.680;5.976;2022-10-15T12:07:53;100403.16;;;16.33;94.54
66887;BME280;53798;51.680;5.976;2022-10-15T12:13:27;100388.06;;;16.48;94.68
66887;BME280;53798;51.680;5.976;2022-10-15T12:18:51;100392.81;;;16.57;94.89
66887;BME280;53798;51.680;5.976;2022-10-15T12:24:02;100387.28;;;16.60;94.74
66887;BME280;53798;51.680;5.976;2022-10-15T12:26:36;100389.88;;;16.62;94.61
66887;BME280;53798;51.680;5.976;2022-10-15T12:29:15;100388.41;;;16.71;94.54
66887;BME280;53798;51.680;5.976;2022-10-15T12:31:49;100385.38;;;16.77;94.96
66887;BME280;53798;51.680;5.976;2022-10-15T12:34:39;100384.78;;;16.86;95.13
66887;BME280;53798;51.680;5.976;2022-10-15T12:37:16;100379.75;;;16.96;95.04
66887;BME280;53798;51.680;5.976;2022-10-15T12:39:45;100379.59;;;17.12;94.93
66887;BME280;53798;51.680;5.976;2022-10-15T12:42:25;100375.38;;;17.22;95.31
66887;BME280;53798;51.680;5.976;2022-10-15T12:45:01;100378.31;;;17.32;94.97
66887;BME280;53798;51.680;5.976;2022-10-15T12:48:11;100380.69;;;17.37;94.62
66887;BME280;53798;51.680;5.976;2022-10-15T12:50:45;100373.97;;;17.44;94.21
66887;BME280;53798;51.680;5.976;2022-10-15T12:58:46;100380.03;;;17.74;93.30
66887;BME280;53798;51.680;5.976;2022-10-15T13:08:54;100385.56;;;17.83;92.39
66887;BME280;53798;51.680;5.976;2022-10-15T13:11:40;100388.63;;;18.05;91.25
66887;BME280;53798;51.680;5.976;2022-10-15T13:16:44;100380.94;;;18.26;89.86
66887;BME280;53798;51.680;5.976;2022-10-15T13:19:38;100376.22;;;18.29;89.45
66887;BME280;53798;51.680;5.976;2022-10-15T13:22:21;100387.66;;;18.31;89.93
66887;BME280;53798;51.680;5.976;2022-10-15T13:24:52;100390.44;;;18.30;88.74
66887;BME280;53798;51.680;5.976;2022-10-15T13:27:38;100382.75;;;18.25;88.26
66887;BME280;53798;51.680;5.976;2022-10-15T13:30:15;100390.75;;;18.25;88.21
66887;BME280;53798;51.680;5.976;2022-10-15T13:32:47;100386.25;;;18.26;88.41
66887;BME280;53798;51.680;5.976;2022-10-15T13:35:19;100387.34;;;18.23;88.34
66887;BME280;53798;51.680;5.976;2022-10-15T13:37:49;100385.09;;;18.43;87.38
66887;BME280;53798;51.680;5.976;2022-10-15T13:40:26;100395.63;;;18.57;87.51
66887;BME280;53798;51.680;5.976;2022-10-15T13:42:58;100392.63;;;18.62;86.49
66887;BME280;53798;51.680;5.976;2022-10-15T13:45:45;100388.34;;;18.59;86.65
66887;BME280;53798;51.680;5.976;2022-10-15T13:48:21;100387.84;;;18.54;86.84
66887;BME280;53798;51.680;5.976;2022-10-15T13:51:02;100389.56;;;18.55;87.20
66887;BME280;53798;51.680;5.976;2022-10-15T13:53:39;100384.84;;;18.59;87.38
66887;BME280;53798;51.680;5.976;2022-10-15T13:56:34;100377.69;;;18.59;86.52
66887;BME280;53798;51.680;5.976;2022-10-15T13:59:02;100384.09;;;18.57;86.32
66887;BME280;53798;51.680;5.976;2022-10-15T14:01:32;100393.81;;;18.58;86.19
66887;BME280;53798;51.680;5.976;2022-10-15T14:04:02;100388.44;;;18.71;85.84
66887;BME280;53798;51.680;5.976;2022-10-15T14:06:33;100389.69;;;18.91;85.04
66887;BME280;53798;51.680;5.976;2022-10-15T14:09:17;100388.94;;;19.02;84.28
66887;BME280;53798;51.680;5.976;2022-10-15T14:11:54;100397.22;;;19.10;83.18
66887;BME280;53798;51.680;5.976;2022-10-15T14:14:34;100399.63;;;19.26;81.51
66887;BME280;53798;51.680;5.976;2022-10-15T14:19:50;100399.75;;;19.24;79.99
66887;BME280;53798;51.680;5.976;2022-10-15T14:22:39;100405.47;;;19.07;78.58
66887;BME280;53798;51.680;5.976;2022-10-15T14:25:09;100402.75;;;18.96;78.84
66887;BME280;53798;51.680;5.976;2022-10-15T14:27:44;100424.06;;;18.83;79.71
66887;BME280;53798;51.680;5.976;2022-10-15T14:30:17;100431.91;;;18.73;80.02
66887;BME280;53798;51.680;5.976;2022-10-15T14:32:50;100445.16;;;18.61;77.14
66887;BME280;53798;51.680;5.976;2022-10-15T14:35:30;100451.91;;;18.54;76.43
66887;BME280;53798;51.680;5.976;2022-10-15T14:38:04;100450.28;;;18.39;76.65
66887;BME280;53798;51.680;5.976;2022-10-15T14:43:38;100459.44;;;18.22;76.67
66887;BME280;53798;51.680;5.976;2022-10-15T14:46:13;100465.34;;;18.14;75.49
66887;BME280;53798;51.680;5.976;2022-10-15T14:48:45;100474.59;;;18.08;70.99
66887;BME280;53798;51.680;5.976;2022-10-15T14:51:24;100475.88;;;18.03;69.36
66887;BME280;53798;51.680;5.976;2022-10-15T14:53:52;100479.69;;;17.98;68.87
66887;BME280;53798;51.680;5.976;2022-10-15T14:56:27;100482.94;;;17.89;68.70
66887;BME280;53798;51.680;5.976;2022-10-15T14:58:58;100485.81;;;17.86;67.77
66887;BME280;53798;51.680;5.976;2022-10-15T15:01:26;100490.81;;;17.78;67.92